createdAt,value
2018-10-09T00:04:09.110Z,8.27
2018-10-09T00:10:14.150Z,8.40
2018-10-09T00:16:18.800Z,8.41
2018-10-09T00:22:23.458Z,8.14
2018-10-09T00:28:28.793Z,8.10
2018-10-09T00:34:33.436Z,7.99
2018-10-09T00:40:38.431Z,7.83
2018-10-09T00:46:43.141Z,7.95
2018-10-09T00:52:49.082Z,7.86
2018-10-09T00:58:53.867Z,7.62
2018-10-09T01:04:58.596Z,7.54
2018-10-09T01:11:03.641Z,7.45
2018-10-09T01:17:08.452Z,7.59
2018-10-09T01:23:13.406Z,7.55
2018-10-09T01:29:18.115Z,7.67
2018-10-09T01:35:22.815Z,7.57
2018-10-09T01:41:27.478Z,7.63
2018-10-09T01:47:32.569Z,7.52
2018-10-09T01:53:37.256Z,7.55
2018-10-09T01:59:41.869Z,7.41
2018-10-09T02:05:47.368Z,7.41
2018-10-09T02:11:52.040Z,7.33
2018-10-09T02:17:56.709Z,7.34
2018-10-09T02:24:01.333Z,7.43
2018-10-09T02:30:08.795Z,7.35
2018-10-09T02:36:13.418Z,7.36
2018-10-09T02:42:18.014Z,7.37
2018-10-09T02:48:22.650Z,7.30
2018-10-09T02:54:27.725Z,7.20
2018-10-09T03:00:32.364Z,7.01
2018-10-09T03:06:37.057Z,7.01
2018-10-09T03:12:41.673Z,6.92
2018-10-09T03:18:46.304Z,6.75
2018-10-09T03:24:51.584Z,6.77
2018-10-09T03:30:56.254Z,6.92
2018-10-09T03:37:00.890Z,6.77
2018-10-09T03:43:05.528Z,6.84
2018-10-09T03:49:10.145Z,6.80
2018-10-09T03:55:15.085Z,6.70
2018-10-09T04:01:19.705Z,6.54
2018-10-09T04:07:24.429Z,6.46
2018-10-09T04:13:29.391Z,6.40
2018-10-09T04:19:34.136Z,6.28
2018-10-09T04:25:39.038Z,6.33
2018-10-09T04:31:43.723Z,6.32
2018-10-09T04:37:48.345Z,6.22
2018-10-09T04:43:52.951Z,6.34
2018-10-09T04:49:57.903Z,6.19
2018-10-09T04:56:02.559Z,6.25
2018-10-09T05:02:07.195Z,6.09
2018-10-09T05:08:11.773Z,5.87
2018-10-09T05:14:16.704Z,5.69
2018-10-09T05:20:21.337Z,5.59
2018-10-09T05:26:26.319Z,5.53
2018-10-09T05:32:31.176Z,5.59
2018-10-09T05:38:36.457Z,5.65
2018-10-09T05:44:41.097Z,5.57
2018-10-09T05:50:46.037Z,5.63
2018-10-09T05:56:50.665Z,5.81
2018-10-09T06:02:55.262Z,5.85
2018-10-09T06:09:00.273Z,5.95
2018-10-09T06:15:04.973Z,6.02
2018-10-09T06:21:09.670Z,6.16
2018-10-09T06:27:14.993Z,6.19
2018-10-09T06:33:19.644Z,6.23
2018-10-09T06:39:24.257Z,6.46
2018-10-09T06:45:29.251Z,6.75
2018-10-09T06:51:33.919Z,6.84
2018-10-09T06:57:38.494Z,7.11
2018-10-09T07:03:43.157Z,6.99
2018-10-09T07:09:47.786Z,7.15
2018-10-09T07:15:52.733Z,7.53
2018-10-09T07:21:57.633Z,7.86
2018-10-09T07:28:02.330Z,8.24
2018-10-09T07:34:07.447Z,8.64
2018-10-09T07:40:12.416Z,9.03
2018-10-09T07:46:17.703Z,9.10
2018-10-09T07:52:22.724Z,9.29
2018-10-09T07:58:27.488Z,9.58
2018-10-09T08:04:32.101Z,9.90
2018-10-09T08:10:36.861Z,10.68
2018-10-09T08:16:41.593Z,10.90
2018-10-09T08:22:46.254Z,11.21
2018-10-09T08:28:50.773Z,11.60
2018-10-09T08:34:55.349Z,12.09
2018-10-09T08:40:59.971Z,12.41
2018-10-09T08:47:04.743Z,12.72
2018-10-09T08:53:12.535Z,13.06
2018-10-09T08:59:17.196Z,13.40
2018-10-09T09:05:21.822Z,13.64
2018-10-09T09:11:26.482Z,13.81
2018-10-09T09:17:31.150Z,14.25
2018-10-09T09:23:36.398Z,14.57
2018-10-09T09:29:41.084Z,14.76
2018-10-09T09:35:45.705Z,15.10
2018-10-09T09:41:50.344Z,15.13
2018-10-09T09:47:54.991Z,15.30
2018-10-09T09:53:59.868Z,15.66
2018-10-09T10:00:04.512Z,17.39
2018-10-09T10:06:10.000Z,17.33
2018-10-09T10:12:14.617Z,16.90
2018-10-09T10:18:19.251Z,16.99
2018-10-09T10:24:24.220Z,16.98
2018-10-09T10:30:29.212Z,17.44
2018-10-09T10:36:33.878Z,19.11
2018-10-09T10:42:38.469Z,20.22
2018-10-09T10:48:57.189Z,22.68
2018-10-09T10:55:01.788Z,24.39
2018-10-09T11:01:06.382Z,25.98
2018-10-09T11:07:11.030Z,27.73
2018-10-09T11:13:15.680Z,27.53
2018-10-09T11:19:20.352Z,28.89
2018-10-09T11:25:24.974Z,28.90
2018-10-09T11:31:29.685Z,30.10
2018-10-09T11:37:34.341Z,30.29
2018-10-09T11:43:38.953Z,30.14
2018-10-09T11:49:43.590Z,29.88
2018-10-09T11:55:48.165Z,30.55
2018-10-09T12:01:52.801Z,31.30
2018-10-09T12:07:57.450Z,31.20
2018-10-09T12:14:02.086Z,31.58
2018-10-09T12:20:06.738Z,32.18
2018-10-09T12:26:11.397Z,32.07
2018-10-09T12:32:16.039Z,31.41
2018-10-09T12:38:20.801Z,31.50
2018-10-09T12:44:25.438Z,30.45
2018-10-09T12:50:30.026Z,28.90
2018-10-09T12:56:34.626Z,28.42
2018-10-09T13:02:39.227Z,28.48
2018-10-09T13:08:43.851Z,28.13
2018-10-09T13:14:48.487Z,27.89
2018-10-09T13:20:53.172Z,28.51
2018-10-09T13:26:57.804Z,28.86
2018-10-09T13:33:02.464Z,28.89
2018-10-09T13:39:08.564Z,28.82
2018-10-09T13:45:13.228Z,28.45
2018-10-09T13:51:18.166Z,29.00
2018-10-09T13:57:22.935Z,30.51
2018-10-09T14:03:27.471Z,30.19
2018-10-09T14:09:32.100Z,31.07
2018-10-09T14:15:37.099Z,31.38
2018-10-09T14:21:41.741Z,32.35
2018-10-09T14:27:46.414Z,33.00
2018-10-09T14:33:51.166Z,32.17
2018-10-09T14:39:55.893Z,30.69
2018-10-09T14:46:00.577Z,29.44
2018-10-09T14:52:05.644Z,29.13
2018-10-09T14:58:10.317Z,29.36
2018-10-09T15:04:15.076Z,29.03
2018-10-09T15:10:19.727Z,28.11
2018-10-09T15:16:24.519Z,26.56
2018-10-09T15:22:29.273Z,25.32
2018-10-09T15:28:33.941Z,24.71
2018-10-09T15:34:38.590Z,24.55
2018-10-09T15:40:43.668Z,25.09
2018-10-09T15:46:48.364Z,24.45
2018-10-09T15:52:53.123Z,24.00
2018-10-09T15:58:58.024Z,24.01
2018-10-09T16:05:02.671Z,24.35
2018-10-09T16:11:07.397Z,22.47
2018-10-09T16:17:12.109Z,21.25
2018-10-09T16:23:16.813Z,20.41
2018-10-09T16:29:21.460Z,19.57
2018-10-09T16:35:26.195Z,19.12
2018-10-09T16:41:30.911Z,18.74
2018-10-09T16:47:35.570Z,18.32
2018-10-09T16:53:40.298Z,17.81
2018-10-09T16:59:44.976Z,17.67
2018-10-09T17:05:49.665Z,17.43
2018-10-09T17:11:54.342Z,17.21
2018-10-09T17:17:59.046Z,17.06
2018-10-09T17:24:03.749Z,16.89
2018-10-09T17:30:09.532Z,16.81
2018-10-09T17:36:14.624Z,16.69
2018-10-09T17:42:19.414Z,16.67
2018-10-09T17:48:24.094Z,16.61
2018-10-09T17:54:28.734Z,16.52
2018-10-09T18:00:33.679Z,16.32
2018-10-09T18:06:38.367Z,16.40
2018-10-09T18:12:43.024Z,16.28
2018-10-09T18:18:47.785Z,16.29
2018-10-09T18:24:52.394Z,16.22
2018-10-09T18:30:57.368Z,16.02
2018-10-09T18:37:02.043Z,15.93
2018-10-09T18:43:07.095Z,15.80
2018-10-09T18:49:11.849Z,15.68
2018-10-09T18:55:17.707Z,15.33
2018-10-09T19:01:22.716Z,15.36
2018-10-09T19:07:27.415Z,15.32
2018-10-09T19:13:32.153Z,15.27
2018-10-09T19:19:36.828Z,15.17
2018-10-09T19:25:41.850Z,15.16
2018-10-09T19:31:46.499Z,15.24
2018-10-09T19:37:51.134Z,14.95
2018-10-09T19:43:55.855Z,14.84
2018-10-09T19:50:00.867Z,14.85
2018-10-09T19:56:05.662Z,14.73
2018-10-09T20:02:10.449Z,14.78
2018-10-09T20:08:15.214Z,14.77
2018-10-09T20:14:19.919Z,14.83
2018-10-09T20:20:24.652Z,14.82
2018-10-09T20:26:29.437Z,14.79
2018-10-09T20:32:34.308Z,14.97
2018-10-09T20:38:38.961Z,14.65
2018-10-09T20:44:43.633Z,14.42
2018-10-09T20:50:48.673Z,14.03
2018-10-09T20:56:53.292Z,14.13
2018-10-09T21:02:58.407Z,14.18
2018-10-09T21:09:03.475Z,13.82
2018-10-09T21:15:08.131Z,13.58
2018-10-09T21:21:12.845Z,13.59
2018-10-09T21:27:17.543Z,13.37
2018-10-09T21:33:22.286Z,13.45
2018-10-09T21:39:27.050Z,13.34
2018-10-09T21:45:31.723Z,13.23
2018-10-09T21:51:36.397Z,13.43
2018-10-09T21:57:41.105Z,13.28
2018-10-09T22:03:46.090Z,13.38
2018-10-09T22:09:50.804Z,13.40
2018-10-09T22:15:55.518Z,13.12
2018-10-09T22:22:00.234Z,13.09
2018-10-09T22:28:04.961Z,12.68
2018-10-09T22:34:09.582Z,12.59
2018-10-09T22:40:14.312Z,12.53
2018-10-09T22:46:19.133Z,12.48
2018-10-09T22:52:24.042Z,12.46
2018-10-09T22:58:28.765Z,12.47
2018-10-09T23:04:33.438Z,12.37
2018-10-09T23:10:38.269Z,12.38
2018-10-09T23:16:42.980Z,11.97
2018-10-09T23:22:47.723Z,11.86
2018-10-09T23:28:52.447Z,11.83
2018-10-09T23:34:57.108Z,11.81
2018-10-09T23:41:01.779Z,11.90
2018-10-09T23:47:06.747Z,11.99
2018-10-09T23:53:11.417Z,11.82
2018-10-09T23:59:16.043Z,11.88
